Time;durP1;ratioP1;P1;durP2;ratioP2;P2;SDS_P1;SDS_P2;PMS_P1;PMS_P2;Temp;Humidity;BMP_temperature;BMP_pressure;BME280_temperature;BME280_humidity;BME280_pressure;Samples;Min_cycle;Max_cycle;Signal;HPM_P1;HPM_P2
2022/11/05 00:09:34;;;;;;;2.10;1.88;;;;;;;18.87;56.98;100932.03;5046202;28;20417;-41
2022/11/05 00:17:37;;;;;;;4.07;2.50;;;;;;;18.87;57.15;100935.47;5045404;28;20087;-41
2022/11/05 00:20:04;;;;;;;3.72;2.53;;;;;;;18.86;57.21;100933.81;5043414;28;20045;-41
2022/11/05 00:25:13;;;;;;;3.30;2.25;;;;;;;18.86;57.12;100952.22;5044056;28;20079;-43
2022/11/05 00:27:39;;;;;;;4.35;2.20;;;;;;;18.86;57.05;100949.59;5045584;28;20159;-41
2022/11/05 00:30:06;;;;;;;4.13;2.00;;;;;;;18.86;56.96;100954.84;5045409;28;20151;-41
2022/11/05 00:32:32;;;;;;;2.35;1.65;;;;;;;18.86;56.98;100957.50;5052700;28;20083;-42
2022/11/05 00:34:58;;;;;;;4.93;2.28;;;;;;;18.85;57.14;100953.16;5046179;28;20541;-41
2022/11/05 00:37:26;;;;;;;2.65;1.90;;;;;;;18.85;57.18;100960.19;5050230;28;20051;-42
2022/11/05 00:39:51;;;;;;;3.10;2.05;;;;;;;18.86;57.00;100964.53;5053593;28;20060;-43
2022/11/05 00:45:01;;;;;;;2.60;1.97;;;;;;;18.84;57.21;100974.31;5046794;28;20052;-42
2022/11/05 00:50:11;;;;;;;3.38;2.38;;;;;;;18.83;56.91;100991.00;5047918;28;20034;-42
2022/11/05 00:52:55;;;;;;;3.45;2.13;;;;;;;18.83;57.12;100991.88;5048615;28;20041;-43
2022/11/05 00:55:22;;;;;;;3.67;2.40;;;;;;;18.83;57.15;100986.59;5046648;28;20119;-41
2022/11/05 00:57:48;;;;;;;3.30;2.10;;;;;;;18.82;57.26;100998.06;5048765;28;20074;-41
2022/11/05 01:00:13;;;;;;;3.40;2.17;;;;;;;18.82;57.10;100999.81;5051535;28;20127;-42
2022/11/05 01:02:39;;;;;;;3.38;2.30;;;;;;;18.82;57.02;101007.72;5049377;28;20044;-41
2022/11/05 01:05:05;;;;;;;3.78;2.15;;;;;;;18.82;56.98;101007.72;5046073;28;20044;-43
2022/11/05 01:07:30;;;;;;;2.83;2.10;;;;;;;18.83;57.10;101012.06;5049958;28;20113;-41
2022/11/05 01:09:55;;;;;;;3.17;2.13;;;;;;;18.81;57.01;101001.59;5041715;28;20056;-41
2022/11/05 01:12:21;;;;;;;3.90;2.00;;;;;;;18.82;56.88;101016.47;5045799;28;20342;-41
2022/11/05 01:14:46;;;;;;;3.33;2.20;;;;;;;18.82;57.05;101019.09;5051619;28;20129;-41
2022/11/05 01:17:11;;;;;;;3.08;2.10;;;;;;;18.82;56.94;101020.88;5063828;28;20089;-41
2022/11/05 01:19:38;;;;;;;2.72;2.00;;;;;;;18.81;57.13;101017.41;5042990;28;20091;-43
2022/11/05 01:22:03;;;;;;;4.15;2.10;;;;;;;18.81;56.94;101016.56;5047300;28;20049;-42
2022/11/05 01:24:29;;;;;;;3.42;2.10;;;;;;;18.81;56.86;101016.56;5043656;28;20048;-41
2022/11/05 01:26:54;;;;;;;4.20;1.90;;;;;;;18.81;57.01;101024.47;5042065;28;20053;-44
2022/11/05 01:29:19;;;;;;;2.38;1.90;;;;;;;18.80;56.98;101017.50;5046135;28;20432;-43
2022/11/05 01:31:45;;;;;;;3.67;1.90;;;;;;;18.79;57.15;101018.41;5046366;28;20095;-43
2022/11/05 01:34:10;;;;;;;3.72;2.15;;;;;;;18.79;57.31;101016.63;5051023;28;20412;-41
2022/11/05 01:36:36;;;;;;;2.85;1.98;;;;;;;18.80;57.16;101020.13;5045782;28;20086;-42
2022/11/05 01:39:01;;;;;;;3.40;2.10;;;;;;;18.79;57.07;101029.78;5051963;28;20374;-41
2022/11/05 01:41:26;;;;;;;2.78;2.13;;;;;;;18.79;57.10;101042.09;5048375;28;20040;-41
2022/11/05 01:44:00;;;;;;;2.42;1.85;;;;;;;18.79;56.94;101047.34;5044699;28;20036;-41
2022/11/05 01:46:40;;;;;;;2.33;1.97;;;;;;;18.79;57.05;101050.00;5044419;28;20041;-43
2022/11/05 01:49:11;;;;;;;2.15;1.85;;;;;;;18.78;57.12;101054.41;5046328;28;20087;-42
2022/11/05 01:51:38;;;;;;;4.07;2.05;;;;;;;18.78;56.90;101057.03;5043272;28;21598;-42
2022/11/05 01:54:08;;;;;;;4.35;2.03;;;;;;;18.78;56.94;101057.03;5050228;28;20067;-41
2022/11/05 01:56:42;;;;;;;4.25;2.10;;;;;;;18.78;57.05;101056.22;5064469;28;20677;-42
2022/11/05 01:59:20;;;;;;;2.53;1.73;;;;;;;18.77;57.12;101062.38;5042501;28;20021;-41
2022/11/05 02:01:46;;;;;;;2.35;1.70;;;;;;;18.78;56.89;101058.84;5047913;28;20108;-42
2022/11/05 02:04:16;;;;;;;3.40;2.00;;;;;;;18.78;56.92;101061.47;5045014;28;20078;-42
2022/11/05 02:06:44;;;;;;;1.98;1.52;;;;;;;18.76;57.09;101058.91;5044838;28;20040;-41
2022/11/05 02:09:25;;;;;;;1.88;1.70;;;;;;;18.76;56.90;101061.53;5048307;28;20037;-41
2022/11/05 02:11:51;;;;;;;3.47;1.95;;;;;;;18.76;56.82;101068.56;5045397;28;20442;-42
2022/11/05 02:14:17;;;;;;;3.40;2.00;;;;;;;18.74;57.01;101063.41;5046471;28;20028;-41
2022/11/05 02:16:59;;;;;;;2.50;1.77;;;;;;;18.75;57.06;101065.06;5045954;28;21000;-42
2022/11/05 02:19:43;;;;;;;2.60;1.88;;;;;;;18.75;56.92;101066.88;5044720;28;20052;-41
2022/11/05 02:22:29;;;;;;;2.87;2.10;;;;;;;18.73;56.94;101069.56;5043889;28;20529;-41
2022/11/05 02:24:58;;;;;;;3.15;2.00;;;;;;;18.72;57.08;101067.03;5050760;28;20040;-41
2022/11/05 02:28:01;;;;;;;5.35;2.30;;;;;;;18.74;56.95;101068.66;5050264;28;20045;-41
2022/11/05 02:30:44;;;;;;;1.90;1.50;;;;;;;18.74;56.98;101070.44;5026280;28;20062;-42
2022/11/05 02:33:41;;;;;;;3.00;2.00;;;;;;;18.73;56.84;101069.56;5046695;28;20399;-41
2022/11/05 02:36:34;;;;;;;2.92;1.90;;;;;;;18.72;56.75;101072.31;5051325;28;20039;-42
2022/11/05 02:39:11;;;;;;;4.28;2.13;;;;;;;18.71;57.01;101071.44;5056609;28;20432;-41
2022/11/05 02:41:45;;;;;;;2.72;1.98;;;;;;;18.70;57.02;101075.84;5048211;28;20962;-42
2022/11/05 02:44:29;;;;;;;2.47;1.88;;;;;;;18.72;56.81;101081.03;5047798;28;20564;-43
2022/11/05 02:47:04;;;;;;;2.93;1.90;;;;;;;18.72;56.82;101083.66;5050107;28;20074;-41
2022/11/05 02:49:57;;;;;;;2.50;1.45;;;;;;;18.70;57.02;101075.84;5048151;28;20041;-41
2022/11/05 02:52:32;;;;;;;2.42;1.50;;;;;;;18.69;57.13;101075.91;5044525;28;20098;-42
2022/11/05 02:55:02;;;;;;;2.65;1.90;;;;;;;18.71;56.93;101074.06;5046969;28;20033;-42
2022/11/05 02:57:28;;;;;;;2.40;2.00;;;;;;;18.72;57.08;101080.19;5048808;28;20127;-41
2022/11/05 03:00:03;;;;;;;2.67;1.92;;;;;;;18.71;56.89;101081.97;5054513;28;20036;-42
2022/11/05 03:02:29;;;;;;;3.20;2.15;;;;;;;18.71;56.84;101076.72;5052236;28;20033;-43
2022/11/05 03:04:54;;;;;;;1.98;1.42;;;;;;;18.69;56.91;101070.66;5054872;28;20025;-43
2022/11/05 03:07:31;;;;;;;2.63;1.70;;;;;;;18.69;56.78;101075.91;5053344;28;20150;-43
2022/11/05 03:10:26;;;;;;;3.25;2.20;;;;;;;18.68;56.87;101072.44;5048746;28;20045;-41
2022/11/05 03:13:14;;;;;;;2.80;1.80;;;;;;;18.67;56.92;101069.88;5056782;28;20060;-42
2022/11/05 03:15:49;;;;;;;3.13;2.00;;;;;;;18.67;56.87;101077.78;5050345;28;20534;-42
2022/11/05 03:18:44;;;;;;;2.70;1.70;;;;;;;18.68;56.78;101085.63;5052512;28;20037;-47
2022/11/05 03:21:19;;;;;;;2.75;1.90;;;;;;;18.69;56.77;101083.81;5046960;28;20048;-47
2022/11/05 03:23:49;;;;;;;2.65;1.95;;;;;;;18.68;56.95;101090.88;5052870;28;20045;-47
2022/11/05 03:26:18;;;;;;;1.75;1.60;;;;;;;18.67;56.90;101081.25;5055005;28;20040;-46
2022/11/05 03:28:47;;;;;;;2.85;1.70;;;;;;;18.66;56.86;101086.59;5051683;28;20029;-48
2022/11/05 03:31:15;;;;;;;2.47;1.85;;;;;;;18.67;56.76;101088.31;5049563;28;20037;-47
2022/11/05 03:33:43;;;;;;;2.63;1.73;;;;;;;18.67;56.85;101091.78;5049379;28;20041;-47
2022/11/05 03:36:18;;;;;;;2.15;1.60;;;;;;;18.66;56.88;101087.44;5053059;28;20715;-47
2022/11/05 03:38:48;;;;;;;2.28;1.83;;;;;;;18.68;56.89;101097.91;5054642;28;20040;-49
2022/11/05 03:41:15;;;;;;;2.83;1.48;;;;;;;18.65;56.96;101093.66;5049663;28;20046;-48
2022/11/05 03:43:45;;;;;;;3.25;1.88;;;;;;;18.66;56.99;101094.47;5055117;28;20035;-47
2022/11/05 03:46:22;;;;;;;1.98;1.65;;;;;;;18.66;56.82;101091.84;5055716;28;20112;-48
2022/11/05 03:48:51;;;;;;;3.10;1.90;;;;;;;18.66;56.90;101091.84;5052101;28;20083;-47
2022/11/05 03:51:26;;;;;;;2.17;1.70;;;;;;;18.65;56.79;101096.28;5054858;28;20044;-48
2022/11/05 03:53:56;;;;;;;2.03;1.83;;;;;;;18.66;56.77;101103.22;5049187;28;21228;-48
2022/11/05 03:56:37;;;;;;;2.85;1.83;;;;;;;18.65;56.80;101103.31;5054387;28;20085;-47
2022/11/05 03:59:05;;;;;;;2.70;1.73;;;;;;;18.64;56.94;101113.00;5058507;28;20375;-47
2022/11/05 04:01:30;;;;;;;2.45;1.70;;;;;;;18.64;56.96;101114.75;5054100;28;20052;-48
2022/11/05 04:03:56;;;;;;;1.98;1.77;;;;;;;18.64;56.78;101127.91;5051038;28;20041;-47
2022/11/05 04:14:33;;;;;;;2.08;1.52;;;;;;;18.62;56.84;101129.78;5050968;28;20097;-49
2022/11/05 04:17:10;;;;;;;2.08;1.60;;;;;;;18.62;56.87;101133.28;5048017;28;20032;-48
2022/11/05 04:25:05;;;;;;;2.45;1.67;;;;;;;18.61;57.00;101131.56;5053045;28;20124;-47
2022/11/05 04:27:30;;;;;;;2.53;1.50;;;;;;;18.62;56.74;101133.28;5044512;28;20423;-49
2022/11/05 04:32:40;;;;;;;2.38;1.85;;;;;;;18.62;56.68;101140.31;5044585;28;20082;-47
2022/11/05 04:35:05;;;;;;;2.83;1.70;;;;;;;18.62;56.65;101141.16;5051039;28;20024;-48
2022/11/05 04:37:31;;;;;;;2.05;1.50;;;;;;;18.60;56.71;101142.19;5045193;28;20036;-47
2022/11/05 04:39:56;;;;;;;2.13;1.52;;;;;;;18.59;56.95;101133.44;5051660;28;20033;-48
2022/11/05 04:42:21;;;;;;;2.03;1.40;;;;;;;18.59;56.85;101141.31;5047256;28;20927;-47
2022/11/05 04:44:47;;;;;;;3.40;1.60;;;;;;;18.59;56.69;101141.31;5048765;28;20043;-47
2022/11/05 04:47:12;;;;;;;2.45;1.63;;;;;;;18.60;56.63;101144.81;5042317;28;20036;-49
2022/11/05 04:49:37;;;;;;;1.98;1.40;;;;;;;18.60;56.85;101147.44;5049626;28;20315;-49
2022/11/05 04:52:03;;;;;;;1.42;1.33;;;;;;;18.59;56.77;101150.97;5043808;28;20079;-46
2022/11/05 04:54:28;;;;;;;2.00;1.42;;;;;;;18.58;56.96;101147.50;5048219;28;20064;-48
2022/11/05 04:56:54;;;;;;;2.67;1.70;;;;;;;18.59;56.85;101145.72;5050150;28;20056;-47
2022/11/05 04:59:19;;;;;;;1.50;1.40;;;;;;;18.59;56.95;101145.72;5051725;28;20024;-49
2022/11/05 05:01:44;;;;;;;3.05;1.70;;;;;;;18.58;56.70;101134.34;5044350;28;20044;-46
2022/11/05 05:04:10;;;;;;;1.70;1.30;;;;;;;18.57;56.86;101139.69;5048653;28;20051;-42
2022/11/05 05:06:37;;;;;;;2.65;1.58;;;;;;;18.58;56.97;101146.63;5052614;28;20032;-43
2022/11/05 05:09:02;;;;;;;2.45;1.77;;;;;;;18.58;56.98;101151.91;5054347;28;20052;-43
2022/11/05 05:11:28;;;;;;;2.20;1.67;;;;;;;18.58;56.83;101144.88;5054380;28;20062;-43
2022/11/05 05:13:53;;;;;;;1.70;1.40;;;;;;;18.58;56.69;101157.16;5048268;28;20041;-43
2022/11/05 05:16:23;;;;;;;2.00;1.50;;;;;;;18.58;56.48;101155.38;5046836;28;20143;-43
2022/11/05 05:18:49;;;;;;;2.20;1.55;;;;;;;18.57;56.83;101158.09;5048948;28;20048;-44
2022/11/05 05:24:00;;;;;;;1.85;1.58;;;;;;;18.57;56.91;101152.84;5047676;28;20044;-44
2022/11/05 05:26:26;;;;;;;1.85;1.38;;;;;;;18.56;56.79;101153.75;5049506;28;20513;-43
2022/11/05 05:28:52;;;;;;;2.17;1.52;;;;;;;18.57;56.91;101163.38;5047541;28;20554;-42
2022/11/05 05:31:19;;;;;;;1.58;1.20;;;;;;;18.57;56.80;101166.81;5047598;28;20578;-42
2022/11/05 05:33:44;;;;;;;3.05;1.70;;;;;;;18.55;56.71;101163.44;5045641;28;20425;-43
2022/11/05 05:36:10;;;;;;;2.45;1.33;;;;;;;18.54;56.79;101166.16;5045423;28;20041;-42
2022/11/05 05:38:35;;;;;;;2.85;1.55;;;;;;;18.54;57.06;101168.78;5047841;28;20115;-43
2022/11/05 05:41:01;;;;;;;1.90;1.50;;;;;;;18.54;56.83;101159.09;5049294;28;20587;-44
2022/11/05 05:43:31;;;;;;;2.47;1.50;;;;;;;18.55;56.83;101170.47;5048504;28;20033;-43
2022/11/05 05:46:00;;;;;;;1.13;1.00;;;;;;;18.54;56.68;101174.88;5046845;28;20053;-43
2022/11/05 05:48:25;;;;;;;2.47;1.60;;;;;;;18.54;56.81;101174.03;5047729;28;20514;-44
2022/11/05 05:50:50;;;;;;;2.65;1.60;;;;;;;18.52;57.04;101175.88;5047135;28;20105;-43
2022/11/05 05:53:16;;;;;;;1.60;1.25;;;;;;;18.51;56.83;101180.28;5044678;28;20066;-44
2022/11/05 05:55:41;;;;;;;2.28;1.52;;;;;;;18.53;57.06;101188.97;5045087;28;20104;-43
2022/11/05 05:58:07;;;;;;;1.88;1.30;;;;;;;18.53;56.82;101180.22;5045180;28;20058;-43
2022/11/05 06:00:32;;;;;;;2.10;1.40;;;;;;;18.53;56.87;101185.47;5047053;28;20128;-43
2022/11/05 06:02:57;;;;;;;1.45;1.20;;;;;;;18.52;57.10;101189.03;5045452;28;20082;-43
2022/11/05 06:05:23;;;;;;;2.00;1.38;;;;;;;18.51;56.88;101195.22;5045193;28;20153;-44
2022/11/05 06:07:57;;;;;;;2.67;1.33;;;;;;;18.50;57.34;101199.63;5045064;28;20060;-43
2022/11/05 06:10:23;;;;;;;;;;;;;;;18.52;56.82;101202.19;5048613;28;20105;-42
2022/11/05 06:12:49;;;;;;;2.10;1.60;;;;;;;18.53;56.93;101203.91;5049660;28;20354;-43
2022/11/05 06:15:14;;;;;;;2.28;1.40;;;;;;;18.55;56.79;101209.94;5048934;28;20036;-44
2022/11/05 06:17:42;;;;;;;2.08;1.50;;;;;;;18.57;56.65;101202.84;5050538;28;20044;-44
2022/11/05 06:20:08;;;;;;;1.55;1.45;;;;;;;18.59;56.16;101208.88;5050582;28;20036;-43
2022/11/05 06:22:33;;;;;;;2.42;1.50;;;;;;;18.63;55.92;101207.78;5044586;28;20159;-44
2022/11/05 06:24:59;;;;;;;2.58;1.60;;;;;;;18.67;55.60;101204.09;5049022;28;20047;-42
2022/11/05 06:27:24;;;;;;;2.80;1.60;;;;;;;18.70;55.68;101201.31;5049215;28;20036;-43
2022/11/05 06:29:49;;;;;;;2.35;1.65;;;;;;;18.74;55.44;101204.66;5048833;28;20083;-43
2022/11/05 06:32:14;;;;;;;1.98;1.50;;;;;;;18.82;55.17;101207.75;5044989;28;20016;-43
2022/11/05 06:34:40;;;;;;;1.90;1.33;;;;;;;18.91;55.11;101207.31;5045577;28;20063;-42
2022/11/05 06:37:05;;;;;;;2.70;1.63;;;;;;;18.94;54.71;101212.44;5049938;28;20147;-41
2022/11/05 06:39:30;;;;;;;1.30;1.20;;;;;;;19.01;55.32;101214.72;5045934;28;20072;-43
2022/11/05 06:41:56;;;;;;;2.38;1.30;;;;;;;19.01;55.38;101221.75;5048090;28;20700;-41
2022/11/05 06:44:21;;;;;;;2.60;1.40;;;;;;;18.98;54.72;101222.75;5050556;28;20040;-43
2022/11/05 06:46:46;;;;;;;2.20;1.60;;;;;;;18.98;54.81;101224.53;5047284;28;20060;-43
2022/11/05 06:49:12;;;;;;;1.30;1.20;;;;;;;19.03;54.97;101228.66;5066294;28;20044;-43
2022/11/05 06:51:37;;;;;;;1.67;1.30;;;;;;;18.99;54.94;101237.63;5048449;28;20033;-42
2022/11/05 06:54:03;;;;;;;2.53;1.70;;;;;;;19.03;55.12;101246.22;5050422;28;20066;-42
2022/11/05 06:56:28;;;;;;;1.90;1.17;;;;;;;19.07;55.45;101245.16;5048434;28;20043;-41
2022/11/05 06:58:53;;;;;;;2.95;1.55;;;;;;;19.07;55.06;101243.38;5048439;28;20111;-42
2022/11/05 07:01:19;;;;;;;1.75;1.58;;;;;;;19.01;54.62;101248.09;5045241;28;20045;-42
2022/11/05 07:03:47;;;;;;;1.50;1.20;;;;;;;19.03;54.92;101254.13;5044681;28;20086;-42
2022/11/05 07:06:13;;;;;;;2.80;1.42;;;;;;;19.04;54.91;101256.69;5047939;28;20036;-42
2022/11/05 07:08:38;;;;;;;2.33;1.48;;;;;;;19.08;54.96;101263.50;5047655;28;20382;-43
2022/11/05 07:11:04;;;;;;;2.70;1.35;;;;;;;19.13;55.16;101261.50;5046665;28;20044;-43
2022/11/05 07:13:30;;;;;;;1.23;1.10;;;;;;;19.15;55.15;101269.34;5050372;28;20040;-41
2022/11/05 07:15:56;;;;;;;2.00;1.75;;;;;;;19.11;54.56;101260.72;5046967;28;20040;-43
2022/11/05 07:18:22;;;;;;;3.78;1.30;;;;;;;19.10;54.54;101263.44;5053003;28;20509;-41
2022/11/05 07:20:48;;;;;;;1.55;1.30;;;;;;;19.10;55.25;101274.84;5045435;28;20098;-42
2022/11/05 07:23:14;;;;;;;1.65;1.35;;;;;;;19.10;54.58;101268.72;5050945;28;20041;-42
2022/11/05 07:25:41;;;;;;;2.15;1.30;;;;;;;19.14;55.40;101270.25;5049198;28;20020;-41
2022/11/05 07:28:08;;;;;;;1.70;1.20;;;;;;;19.15;54.77;101270.19;5046520;28;20048;-42
2022/11/05 07:30:35;;;;;;;2.05;1.50;;;;;;;19.05;54.56;101270.69;5049195;28;20155;-42
2022/11/05 07:33:01;;;;;;;4.30;1.42;;;;;;;19.10;54.47;101276.63;5051016;28;20159;-42
2022/11/05 07:35:27;;;;;;;1.85;1.33;;;;;;;19.09;54.01;101274.91;5053748;28;20052;-41
2022/11/05 07:37:54;;;;;;;2.78;1.63;;;;;;;19.05;54.60;101274.19;5054799;28;20176;-41
2022/11/05 07:40:21;;;;;;;2.92;1.40;;;;;;;19.10;55.01;101276.63;5048235;28;20485;-41
2022/11/05 07:42:52;;;;;;;2.40;1.27;;;;;;;19.09;54.92;101277.53;5047459;28;20986;-42
2022/11/05 07:45:18;;;;;;;1.80;1.63;;;;;;;19.14;54.09;101279.00;5046796;28;20143;-42
2022/11/05 07:47:51;;;;;;;3.38;1.60;;;;;;;19.09;54.05;101291.56;5044141;28;20040;-42
2022/11/05 07:50:21;;;;;;;1.90;1.60;;;;;;;19.09;54.54;101290.69;5048383;28;20033;-42
2022/11/05 07:52:47;;;;;;;1.75;1.30;;;;;;;19.10;54.47;101297.69;5048484;28;20033;-43
2022/11/05 07:55:14;;;;;;;1.73;1.33;;;;;;;19.16;55.06;101295.59;5050520;28;20126;-42
2022/11/05 07:57:48;;;;;;;2.70;1.30;;;;;;;19.22;54.90;101297.91;5048406;28;20037;-42
2022/11/05 08:00:19;;;;;;;1.52;1.02;;;;;;;19.26;54.86;101298.63;5049814;28;20040;-41
2022/11/05 08:03:06;;;;;;;1.30;1.08;;;;;;;19.18;54.36;101298.16;5045438;28;20058;-42
2022/11/05 08:05:35;;;;;;;2.20;1.35;;;;;;;19.18;54.93;101303.41;5052175;28;20037;-41
2022/11/05 08:08:01;;;;;;;1.48;1.20;;;;;;;19.23;54.94;101307.53;5050149;28;20033;-42
2022/11/05 08:10:26;;;;;;;2.05;1.30;;;;;;;19.24;55.07;101311.88;5045553;28;20044;-43
2022/11/05 08:12:53;;;;;;;3.17;1.42;;;;;;;19.25;54.80;101312.75;5049880;28;20044;-41
2022/11/05 08:15:19;;;;;;;3.35;1.30;;;;;;;19.28;55.14;101322.28;5061627;28;20057;-41
2022/11/05 08:17:45;;;;;;;1.92;1.25;;;;;;;19.18;54.55;101321.84;5042977;28;20609;-42
2022/11/05 08:20:13;;;;;;;2.42;1.30;;;;;;;19.16;54.62;101321.09;5049968;28;20037;-42
2022/11/05 08:22:44;;;;;;;4.38;1.20;;;;;;;19.19;55.04;101320.94;5043100;28;20143;-42
2022/11/05 08:25:11;;;;;;;2.03;1.25;;;;;;;19.40;56.01;101316.44;5049719;28;20036;-45
2022/11/05 08:27:37;;;;;;;2.22;1.38;;;;;;;19.47;55.83;101323.09;5045087;28;20576;-45
2022/11/05 08:30:05;;;;;;;6.55;1.60;;;;;;;19.56;56.35;101320.88;5050515;28;20056;-45
2022/11/05 08:32:30;;;;;;;3.17;1.60;;;;;;;19.58;56.06;101326.91;5048032;28;20045;-45
2022/11/05 08:34:55;;;;;;;4.22;1.73;;;;;;;19.52;56.02;101323.75;5041551;28;20489;-45
2022/11/05 08:37:21;;;;;;;3.20;1.42;;;;;;;19.53;56.05;101323.66;5047609;28;20124;-43
2022/11/05 08:39:46;;;;;;;4.18;1.80;;;;;;;19.57;55.84;101327.00;5050658;28;20045;-41
2022/11/05 08:42:12;;;;;;;5.32;1.85;;;;;;;19.57;55.60;101329.66;5045931;28;20056;-42
2022/11/05 08:44:37;;;;;;;3.45;1.55;;;;;;;19.54;55.84;101332.44;5047949;28;20143;-41
2022/11/05 08:47:02;;;;;;;5.30;1.40;;;;;;;19.62;55.63;101328.47;5047328;28;20043;-42
2022/11/05 08:49:28;;;;;;;5.75;1.95;;;;;;;19.56;55.58;101335.84;5042235;28;20045;-43
2022/11/05 08:51:53;;;;;;;4.28;1.85;;;;;;;19.49;55.95;101334.44;5048919;28;20048;-43
2022/11/05 08:54:18;;;;;;;4.43;1.45;;;;;;;19.50;55.82;101331.72;5063546;28;20040;-43
2022/11/05 08:56:44;;;;;;;4.82;1.75;;;;;;;19.59;55.72;101339.19;5045393;28;20513;-42
2022/11/05 08:59:09;;;;;;;5.43;1.80;;;;;;;19.66;55.41;101335.31;5049764;28;20065;-43
2022/11/05 09:01:35;;;;;;;4.95;1.38;;;;;;;19.67;54.87;101330.88;5046631;28;20071;-43
2022/11/05 09:04:00;;;;;;;4.75;1.55;;;;;;;19.64;55.79;101338.97;5046248;28;20043;-44
2022/11/05 09:06:25;;;;;;;5.15;1.80;;;;;;;19.50;56.08;101334.34;5049994;28;20078;-43
2022/11/05 09:08:51;;;;;;;4.43;1.67;;;;;;;19.53;55.67;101339.47;5049289;28;20085;-43
2022/11/05 09:11:17;;;;;;;4.03;1.67;;;;;;;19.64;55.65;101341.59;5046840;28;20436;-42
2022/11/05 09:13:42;;;;;;;3.65;1.70;;;;;;;19.64;55.47;101338.97;5052107;28;20033;-44
2022/11/05 09:16:20;;;;;;;3.38;1.40;;;;;;;19.62;55.47;101331.13;5045891;28;20433;-44
2022/11/05 09:18:46;;;;;;;3.22;1.42;;;;;;;19.69;55.58;101334.31;5052873;28;20570;-43
2022/11/05 09:21:11;;;;;;;4.97;2.15;;;;;;;19.59;55.55;101336.53;5044305;28;20040;-43
2022/11/05 09:23:37;;;;;;;12.25;1.95;;;;;;;19.50;56.05;101344.91;5045627;28;20655;-42
2022/11/05 09:26:03;;;;;;;2.97;1.60;;;;;;;19.54;55.89;101338.56;5045010;28;20563;-42
2022/11/05 09:28:30;;;;;;;4.22;1.98;;;;;;;19.61;55.66;101333.84;5048577;28;20412;-45
2022/11/05 09:30:55;;;;;;;4.30;1.50;;;;;;;19.68;55.49;101337.88;5044707;28;20044;-42
2022/11/05 09:33:24;;;;;;;3.28;1.60;;;;;;;19.69;55.33;101339.59;5051918;28;20063;-43
2022/11/05 09:35:50;;;;;;;5.25;1.60;;;;;;;19.66;55.34;101337.97;5046883;28;20052;-43
2022/11/05 09:38:16;;;;;;;4.82;1.40;;;;;;;19.52;55.57;101332.50;5044753;28;20029;-43
2022/11/05 09:40:56;;;;;;;4.85;1.52;;;;;;;19.49;55.89;101343.19;5044665;28;20075;-44
2022/11/05 09:43:30;;;;;;;4.45;1.45;;;;;;;19.66;55.49;101337.97;5047407;28;20041;-43
2022/11/05 09:45:58;;;;;;;4.17;1.27;;;;;;;19.69;55.37;101343.06;5045072;28;20173;-43
2022/11/05 09:48:27;;;;;;;3.03;1.73;;;;;;;19.73;55.23;101338.47;5043386;28;20203;-44
2022/11/05 09:50:53;;;;;;;4.50;1.40;;;;;;;19.73;55.20;101346.38;5041021;28;20056;-43
2022/11/05 09:53:22;;;;;;;3.03;1.17;;;;;;;19.69;55.30;101344.84;5047294;28;20025;-43
2022/11/05 09:55:55;;;;;;;4.47;1.25;;;;;;;19.60;55.62;101353.22;5047963;28;20123;-44
2022/11/05 09:58:37;;;;;;;4.10;1.70;;;;;;;19.60;55.64;101350.56;5043306;28;20068;-43
2022/11/05 10:01:09;;;;;;;4.20;1.30;;;;;;;19.58;55.46;101350.63;5047799;28;20098;-44
2022/11/05 10:03:42;;;;;;;3.92;1.70;;;;;;;19.65;55.21;101349.41;5046424;28;20039;-44
2022/11/05 10:06:11;;;;;;;5.63;1.98;;;;;;;19.66;55.21;101345.88;5045096;28;20036;-44
2022/11/05 10:08:41;;;;;;;3.53;1.50;;;;;;;19.64;55.44;101345.06;5047793;28;20218;-43
2022/11/05 10:11:17;;;;;;;4.05;1.30;;;;;;;19.65;55.49;101354.69;5048419;28;20139;-43
2022/11/05 10:13:50;;;;;;;2.80;1.27;;;;;;;19.57;55.52;101346.31;5043495;28;20706;-42
2022/11/05 10:16:21;;;;;;;2.47;1.15;;;;;;;19.57;55.53;101356.00;5051187;28;20071;-43
2022/11/05 10:18:56;;;;;;;3.60;1.50;;;;;;;19.58;55.18;101349.81;5045779;28;20439;-43
2022/11/05 10:21:21;;;;;;;4.22;1.75;;;;;;;19.64;55.49;101352.97;5041558;28;20098;-42
2022/11/05 10:23:47;;;;;;;4.63;1.45;;;;;;;19.60;55.50;101358.47;5047088;28;20817;-43
2022/11/05 10:26:19;;;;;;;3.60;1.23;;;;;;;19.70;55.36;101351.81;5047794;28;20095;-43
2022/11/05 10:28:44;;;;;;;4.45;1.52;;;;;;;19.75;55.20;101357.72;5044870;28;20048;-43
2022/11/05 10:31:13;;;;;;;4.78;1.17;;;;;;;19.64;55.33;101358.25;5047259;28;20174;-44
2022/11/05 10:33:44;;;;;;;4.63;1.67;;;;;;;19.59;55.18;101359.41;5047303;28;20594;-43
2022/11/05 10:36:23;;;;;;;3.08;1.40;;;;;;;19.62;55.02;101361.88;5048718;28;20068;-43
2022/11/05 10:38:50;;;;;;;4.82;1.65;;;;;;;19.57;55.58;101363.91;5044878;28;20405;-43
2022/11/05 10:41:43;;;;;;;6.95;1.60;;;;;;;19.56;55.46;101362.19;5045444;28;20029;-43
2022/11/05 10:44:46;;;;;;;2.72;1.00;;;;;;;19.66;55.26;101366.09;5053377;28;20043;-43
2022/11/05 10:47:30;;;;;;;3.22;1.50;;;;;;;19.74;55.14;101371.84;5011372;28;20037;-43
2022/11/05 10:49:58;;;;;;;3.22;1.80;;;;;;;19.53;55.51;101373.72;5050723;28;20050;-44
2022/11/05 10:52:30;;;;;;;4.00;1.65;;;;;;;19.51;55.91;101369.47;5050954;28;20097;-43
2022/11/05 10:54:59;;;;;;;1.45;1.17;;;;;;;19.48;55.60;101372.25;5053083;28;20038;-44
2022/11/05 10:57:38;;;;;;;3.13;1.13;;;;;;;19.49;55.55;101368.69;5049767;28;20100;-42
2022/11/05 11:00:15;;;;;;;2.13;1.38;;;;;;;19.59;55.23;101367.31;5048153;28;20040;-43
2022/11/05 11:02:42;;;;;;;3.17;1.33;;;;;;;19.61;55.52;101368.94;5050930;28;20040;-43
2022/11/05 11:05:10;;;;;;;2.33;1.17;;;;;;;19.66;55.47;101364.31;5053661;28;20772;-43
2022/11/05 11:07:35;;;;;;;2.50;1.20;;;;;;;19.52;55.02;101365.91;5053534;28;20611;-44
2022/11/05 11:10:02;;;;;;;3.08;1.10;;;;;;;19.44;55.55;101371.53;5043183;28;20509;-43
2022/11/05 11:12:37;;;;;;;2.03;1.23;;;;;;;19.49;55.31;101371.34;5045484;28;20029;-42
2022/11/05 11:15:13;;;;;;;2.42;1.40;;;;;;;19.53;55.60;101365.81;5049799;28;20078;-43
2022/11/05 11:17:39;;;;;;;4.47;1.42;;;;;;;19.61;55.04;101362.84;5041305;28;20052;-43
2022/11/05 11:20:18;;;;;;;3.47;1.00;;;;;;;19.57;55.12;101363.91;5045777;28;20077;-43
2022/11/05 11:23:15;;;;;;;1.85;1.10;;;;;;;19.57;55.56;101351.59;5047161;28;20049;-44
2022/11/05 11:25:50;;;;;;;3.30;1.15;;;;;;;19.64;54.73;101354.78;5050609;28;20045;-42
2022/11/05 11:28:31;;;;;;;2.10;1.20;;;;;;;19.48;55.22;101357.31;5054001;28;20040;-42
2022/11/05 11:31:19;;;;;;;1.92;1.15;;;;;;;19.52;54.95;101344.84;5052957;28;20036;-42
2022/11/05 11:33:48;;;;;;;2.70;1.15;;;;;;;19.50;55.38;101351.94;5050587;28;20087;-43
2022/11/05 11:36:18;;;;;;;2.65;1.48;;;;;;;19.52;55.07;101350.94;5050546;28;20115;-42
2022/11/05 11:38:44;;;;;;;2.28;1.20;;;;;;;19.49;55.25;101352.91;5054905;28;20041;-41
2022/11/05 11:41:10;;;;;;;3.38;1.20;;;;;;;19.61;55.40;101355.75;5047064;28;20036;-42
2022/11/05 11:43:39;;;;;;;2.30;1.13;;;;;;;19.67;55.32;101344.06;5049322;28;20812;-41
2022/11/05 11:46:17;;;;;;;1.83;0.93;;;;;;;19.60;54.62;101355.84;5048277;28;20045;-43
2022/11/05 11:48:46;;;;;;;2.53;1.00;;;;;;;19.72;55.39;101349.97;5043227;28;20037;-44
2022/11/05 11:51:39;;;;;;;5.53;1.30;;;;;;;19.69;55.41;101347.50;5046796;28;20033;-44
2022/11/05 11:54:16;;;;;;;6.13;1.50;;;;;;;19.70;55.50;101344.75;5041026;28;20410;-45
2022/11/05 11:56:44;;;;;;;2.58;1.10;;;;;;;19.81;55.42;101349.53;5048880;28;20044;-46
2022/11/05 11:59:23;;;;;;;3.45;1.23;;;;;;;19.85;55.18;101348.41;5051569;28;20088;-46
2022/11/05 12:02:06;;;;;;;3.22;1.00;;;;;;;19.82;55.13;101355.66;5056022;28;20051;-45
2022/11/05 12:04:57;;;;;;;4.25;1.10;;;;;;;19.76;55.19;101351.50;5049675;28;20079;-45
2022/11/05 12:07:47;;;;;;;1.73;1.00;;;;;;;19.74;55.15;101354.25;5048150;28;20045;-45
2022/11/05 12:10:31;;;;;;;3.95;1.10;;;;;;;19.73;55.29;101355.16;5054042;28;20763;-46
2022/11/05 12:13:03;;;;;;;4.47;1.30;;;;;;;19.79;55.33;101348.72;5048727;28;20041;-46
2022/11/05 12:15:50;;;;;;;3.28;1.08;;;;;;;19.87;55.17;101343.94;5050813;28;20508;-44
2022/11/05 12:18:25;;;;;;;6.00;1.05;;;;;;;19.91;55.19;101355.16;5046224;28;20030;-46